createdAt,value
2024-02-29T00:02:31.457Z,25.1
2024-02-29T00:08:10.100Z,25.9
2024-02-29T00:13:49.117Z,23.6
2024-02-29T00:19:27.861Z,22.9
2024-02-29T00:24:51.304Z,22.6
2024-02-29T00:30:30.418Z,22.3
2024-02-29T00:36:15.260Z,22.1
2024-02-29T00:42:04.156Z,21.8
2024-02-29T00:47:43.409Z,21.6
2024-02-29T00:53:22.408Z,25.1
2024-02-29T00:59:01.492Z,25.6
2024-02-29T01:04:25.296Z,23.5
2024-02-29T01:10:03.683Z,22.9
2024-02-29T01:15:42.641Z,22.6
2024-02-29T01:21:05.883Z,22.3
2024-02-29T01:26:48.069Z,22.1
2024-02-29T01:32:37.626Z,21.8
2024-02-29T01:38:17.315Z,21.6
2024-02-29T01:43:40.665Z,25.1
2024-02-29T01:49:19.471Z,25.8
2024-02-29T01:54:59.011Z,23.6
2024-02-29T02:00:41.388Z,22.9
2024-02-29T02:06:20.538Z,22.6
2024-02-29T02:11:59.958Z,22.3
2024-02-29T02:17:07.461Z,22
2024-02-29T02:22:30.835Z,21.8
2024-02-29T02:27:54.031Z,21.6
2024-02-29T02:33:16.719Z,24.8
2024-02-29T02:38:39.758Z,26.4
2024-02-29T02:43:47.489Z,23.7
2024-02-29T02:49:10.612Z,23
2024-02-29T02:54:33.981Z,22.6
2024-02-29T02:59:57.143Z,22.4
2024-02-29T03:05:36.017Z,22.1
2024-02-29T03:11:14.921Z,21.9
2024-02-29T03:16:53.606Z,21.7
2024-02-29T03:22:32.842Z,24.6
2024-02-29T03:28:11.438Z,26.5
2024-02-29T03:33:50.042Z,23.8
2024-02-29T03:39:28.478Z,22.9
2024-02-29T03:45:07.272Z,22.1
2024-02-29T03:50:46.304Z,21.8
2024-02-29T03:56:24.814Z,21.7
2024-02-29T04:02:04.077Z,21.6
2024-02-29T04:07:42.797Z,23.7
2024-02-29T04:13:21.414Z,26.3
2024-02-29T04:19:00.237Z,24
2024-02-29T04:24:38.797Z,23.1
2024-02-29T04:30:17.696Z,22.3
2024-02-29T04:35:56.688Z,21.8
2024-02-29T04:41:35.401Z,21.6
2024-02-29T04:46:58.297Z,21.6
2024-02-29T04:52:37.004Z,22.4
2024-02-29T04:58:15.880Z,25.5
2024-02-29T05:03:54.911Z,24.9
2024-02-29T05:09:18.208Z,23.4
2024-02-29T05:14:59.194Z,23.1
2024-02-29T05:20:37.518Z,22.7
2024-02-29T05:26:16.300Z,22.2
2024-02-29T05:31:55.112Z,21.8
2024-02-29T05:37:36.166Z,21.7
2024-02-29T05:43:15.000Z,23.1
2024-02-29T05:48:42.672Z,26
2024-02-29T05:54:20.650Z,24.9
2024-02-29T05:59:59.482Z,23.6
2024-02-29T06:05:38.784Z,22.6
2024-02-29T06:11:19.344Z,22.1
2024-02-29T06:16:58.224Z,21.9
2024-02-29T06:22:37.427Z,21.8
2024-02-29T06:28:16.273Z,21.9
2024-02-29T06:33:55.636Z,25.8
2024-02-29T06:39:34.474Z,25.1
2024-02-29T06:44:58.159Z,23.6
2024-02-29T06:50:37.710Z,23.1
2024-02-29T06:56:17.489Z,22.7
2024-02-29T07:01:56.864Z,22.4
2024-02-29T07:07:35.767Z,22.2
2024-02-29T07:13:15.576Z,21.9
2024-02-29T07:18:54.922Z,24.8
2024-02-29T07:24:33.757Z,27.1
2024-02-29T07:29:57.485Z,24.3
2024-02-29T07:35:21.922Z,23.4
2024-02-29T07:41:01.148Z,22.9
2024-02-29T07:46:27.608Z,22.6
2024-02-29T07:52:07.465Z,22.4
2024-02-29T07:57:51.024Z,22.3
2024-02-29T08:03:31.308Z,24.1
2024-02-29T08:09:11.085Z,26.6
2024-02-29T08:14:53.769Z,24.4
2024-02-29T08:20:32.703Z,23.4
2024-02-29T08:26:11.884Z,23
2024-02-29T08:31:35.665Z,22.8
2024-02-29T08:37:16.476Z,22.5
2024-02-29T08:42:54.849Z,22.3
2024-02-29T08:48:34.077Z,21.9
2024-02-29T08:54:13.193Z,25.3
2024-02-29T08:59:52.247Z,25.9
2024-02-29T09:05:31.712Z,23.8
2024-02-29T09:11:12.791Z,23.1
2024-02-29T09:17:06.859Z,22.8
2024-02-29T09:22:46.594Z,22.4
2024-02-29T09:28:13.894Z,22.2
2024-02-29T09:33:56.669Z,21.9
2024-02-29T09:39:39.864Z,21.7
2024-02-29T09:45:58.024Z,21.5
2024-02-29T09:51:47.077Z,21.3
2024-02-29T10:02:55.671Z,25.3
2024-02-29T10:08:38.678Z,25.1
2024-02-29T10:14:17.882Z,23.6
2024-02-29T10:19:59.256Z,23
2024-02-29T10:25:37.887Z,22.7
2024-02-29T10:31:18.891Z,22.4
2024-02-29T10:36:59.781Z,22.2
2024-02-29T10:42:38.823Z,21.9
2024-02-29T10:48:18.263Z,21.8
2024-02-29T10:53:42.078Z,21.6
2024-02-29T10:59:22.360Z,21.4
2024-02-29T11:05:01.325Z,21.5
2024-02-29T11:10:40.511Z,26.1
2024-02-29T11:16:04.117Z,24.7
2024-02-29T11:21:40.961Z,23.6
2024-02-29T11:27:26.495Z,23.1
2024-02-29T11:33:05.461Z,22.8
2024-02-29T11:38:57.321Z,22.5
2024-02-29T11:44:22.001Z,22.1
2024-02-29T11:50:03.968Z,21.3
2024-02-29T11:55:47.779Z,20.7
2024-02-29T12:01:38.745Z,20.3
2024-02-29T12:07:18.869Z,20.1
2024-02-29T12:13:02.006Z,20.4
2024-02-29T12:18:41.759Z,20.3
2024-02-29T12:24:08.914Z,20.2
2024-02-29T12:29:48.949Z,20.3
2024-02-29T12:35:29.687Z,20.3
2024-02-29T12:41:10.444Z,20.3
2024-02-29T12:46:50.550Z,20.2
2024-02-29T12:52:30.832Z,20.1
2024-02-29T12:58:14.515Z,20.1
2024-02-29T13:03:58.688Z,20
2024-02-29T13:09:23.255Z,20
2024-02-29T13:14:54.519Z,19.9
2024-02-29T13:20:19.326Z,19.9
2024-02-29T13:26:00.472Z,19.9
2024-02-29T13:31:27.349Z,19.9
2024-02-29T13:37:09.986Z,19.9
2024-02-29T13:42:49.059Z,19.9
2024-02-29T13:48:13.023Z,19.9
2024-02-29T13:54:10.283Z,19.8
2024-02-29T13:59:34.029Z,19.8
2024-02-29T14:04:59.002Z,19.8
2024-02-29T14:10:38.633Z,19.8
2024-02-29T14:16:18.538Z,19.8
2024-02-29T14:22:00.083Z,19.8
2024-02-29T14:27:24.258Z,19.7
2024-02-29T14:33:04.692Z,19.7
2024-02-29T14:38:43.769Z,19.7
2024-02-29T14:44:23.642Z,19.7
2024-02-29T14:50:03.432Z,19.8
2024-02-29T14:55:44.154Z,19.7
2024-02-29T15:01:08.545Z,19.7
2024-02-29T15:06:49.921Z,19.7
2024-02-29T15:12:33.436Z,19.7
2024-02-29T15:18:13.824Z,19.6
2024-02-29T15:23:37.500Z,19.6
2024-02-29T15:29:01.382Z,19.6
2024-02-29T15:34:42.439Z,19.6
2024-02-29T15:40:22.746Z,19.6
2024-02-29T15:46:02.066Z,19.5
2024-02-29T15:51:45.194Z,19.5
2024-02-29T15:57:11.058Z,19.5
2024-02-29T16:02:50.958Z,19.5
2024-02-29T16:08:32.310Z,19.4
2024-02-29T16:13:55.797Z,19.4
2024-02-29T16:19:23.082Z,19.4
2024-02-29T16:25:02.947Z,19.4
2024-02-29T16:30:41.607Z,19.4
2024-02-29T16:36:23.456Z,19.4
2024-02-29T16:42:02.451Z,19.4
2024-02-29T16:47:45.193Z,19.4
2024-02-29T16:53:24.651Z,19.4
2024-02-29T16:59:04.496Z,19.3
2024-02-29T17:04:47.189Z,19.3
2024-02-29T17:10:29.630Z,19.3
2024-02-29T17:15:56.012Z,19.3
2024-02-29T17:21:35.066Z,19.3
2024-02-29T17:27:14.033Z,19.3
2024-02-29T17:32:53.755Z,19.1
2024-02-29T17:38:20.115Z,19.1
2024-02-29T17:43:58.407Z,19.1
2024-02-29T17:49:37.668Z,19.1
2024-02-29T17:55:19.023Z,19.1
2024-02-29T18:00:58.871Z,19.1
2024-02-29T18:06:39.093Z,19.1
2024-02-29T18:12:26.689Z,18.9
2024-02-29T18:18:06.015Z,24.3
2024-02-29T18:23:45.992Z,26.6
2024-02-29T18:29:25.139Z,24.1
2024-02-29T18:35:04.933Z,23
2024-02-29T18:40:44.594Z,22.6
2024-02-29T18:46:38.468Z,22.3
2024-02-29T18:52:17.932Z,21.9
2024-02-29T18:57:59.355Z,21.8
2024-02-29T19:03:41.102Z,21.4
2024-02-29T19:09:23.546Z,21.4
2024-02-29T19:19:55.461Z,20.9
2024-02-29T19:25:38.054Z,24.3
2024-02-29T19:31:17.477Z,26.9
2024-02-29T19:37:00.157Z,23.9
2024-02-29T19:42:39.109Z,22.9
2024-02-29T19:48:03.787Z,22.5
2024-02-29T19:53:27.472Z,22.3
2024-02-29T19:59:07.119Z,22.2
2024-02-29T20:04:47.364Z,21.6
2024-02-29T20:10:11.105Z,21.3
2024-02-29T20:21:01.360Z,20.9
2024-02-29T20:26:09.321Z,20.8
2024-02-29T20:31:20.523Z,22.6
2024-02-29T20:37:00.989Z,25.8
2024-02-29T20:42:25.542Z,24.4
2024-02-29T20:47:49.980Z,23.1
2024-02-29T20:52:58.860Z,22.6
2024-02-29T20:58:22.490Z,22.3
2024-02-29T21:03:30.738Z,21.9
2024-02-29T21:08:39.786Z,21.8
2024-02-29T21:14:03.771Z,21.5
2024-02-29T21:19:27.463Z,21.3
2024-02-29T21:24:51.452Z,21
2024-02-29T21:30:17.968Z,20.8
2024-02-29T21:35:41.331Z,20.7
2024-02-29T21:40:57.476Z,23.6
2024-02-29T21:46:38.769Z,26.2
2024-02-29T21:52:17.678Z,23.9
2024-02-29T21:57:56.711Z,22.9
2024-02-29T22:03:37.747Z,22.7
2024-02-29T22:09:01.680Z,22.6
2024-02-29T22:14:43.387Z,22.3
2024-02-29T22:20:25.773Z,22.3
2024-02-29T22:25:49.433Z,25.9
2024-02-29T22:31:28.701Z,26.2
2024-02-29T22:37:08.187Z,24
2024-02-29T22:42:58.772Z,23.4
2024-02-29T22:48:38.359Z,23
2024-02-29T22:54:17.462Z,22.7
2024-02-29T22:59:56.714Z,22.5
2024-02-29T23:05:42.647Z,22.2
2024-02-29T23:11:22.289Z,23.7
2024-02-29T23:16:46.066Z,26.4
2024-02-29T23:22:09.955Z,25.3
2024-02-29T23:27:54.880Z,23.8
2024-02-29T23:33:37.053Z,23.3
2024-02-29T23:39:16.502Z,23
2024-02-29T23:44:40.084Z,22.7
2024-02-29T23:50:18.794Z,22.4
2024-02-29T23:55:58.294Z,22.1
